N100MB KAPA-KLIC
Flight info
| Callsign | N100MB |
|---|---|
| Flight time | N/A |
| Altitude | 7500 |
| Route | JEFEL V366 CONAL/N0110F090 |
| Aircraft | C172/L-SFG/C |
Departure
| Time | 2026-04-22 19:55 |
|---|---|
| Airport | Centennial Airport (KAPA) |
Arrival
| Time | N/A |
|---|---|
| Airport | Limon Municipal Airport (KLIC) |
| Time | Latitude | Longitude | Altitude | Speed | Heading |
|---|---|---|---|---|---|
| 2026-04-22 19:39 | 39.58227 | -104.84932 | 5848 ft | 0 kts | 122° |
| 2026-04-22 19:53 | 39.58242 | -104.84916 | 5847 ft | 10 kts | 354° |
| 2026-04-22 19:53 | 39.58338 | -104.84929 | 5850 ft | 16 kts | 358° |
| 2026-04-22 19:53 | 39.58413 | -104.84981 | 5862 ft | 9 kts | 270° |
| 2026-04-22 19:54 | 39.58411 | -104.85056 | 5858 ft | 8 kts | 269° |
| 2026-04-22 19:54 | 39.58407 | -104.85131 | 5864 ft | 9 kts | 264° |
| 2026-04-22 19:54 | 39.58298 | -104.85143 | 5857 ft | 41 kts | 177° |
| 2026-04-22 19:54 | 39.57838 | -104.85110 | 5914 ft | 79 kts | 179° |
| 2026-04-22 19:55 | 39.57294 | -104.85092 | 6215 ft | 79 kts | 184° |
| 2026-04-22 19:55 | 39.56713 | -104.85081 | 6439 ft | 92 kts | 184° |
| 2026-04-22 19:55 | 39.56079 | -104.85056 | 6752 ft | 97 kts | 176° |
| 2026-04-22 19:55 | 39.55398 | -104.85142 | 6976 ft | 101 kts | 221° |
| 2026-04-22 19:56 | 39.55563 | -104.86071 | 6744 ft | 152 kts | 327° |
| 2026-04-22 19:56 | 39.56557 | -104.86110 | 6889 ft | 142 kts | 357° |
| 2026-04-22 19:56 | 39.57575 | -104.86193 | 6799 ft | 151 kts | 347° |
| 2026-04-22 19:56 | 39.58629 | -104.86222 | 6747 ft | 154 kts | 353° |
| 2026-04-22 19:57 | 39.59683 | -104.86127 | 6613 ft | 153 kts | 7° |
| 2026-04-22 19:57 | 39.60142 | -104.85255 | 6459 ft | 103 kts | 138° |
| 2026-04-22 19:57 | 39.59643 | -104.85111 | 6276 ft | 71 kts | 196° |
| 2026-04-22 19:57 | 39.59176 | -104.85164 | 6146 ft | 66 kts | 189° |
| 2026-04-22 19:58 | 39.58731 | -104.85154 | 6021 ft | 65 kts | 187° |
| 2026-04-22 19:58 | 39.58276 | -104.85141 | 5871 ft | 64 kts | 177° |
| 2026-04-22 19:58 | 39.57893 | -104.85126 | 5848 ft | 59 kts | 178° |
| 2026-04-22 19:58 | 39.57381 | -104.85093 | 5968 ft | 80 kts | 181° |
| 2026-04-22 19:59 | 39.56803 | -104.85062 | 6320 ft | 80 kts | 181° |
| 2026-04-22 20:00 | 39.56985 | -104.86788 | 6869 ft | 154 kts | 354° |
| 2026-04-22 20:00 | 39.58073 | -104.86804 | 6767 ft | 158 kts | 354° |
| 2026-04-22 20:01 | 39.59108 | -104.86633 | 6648 ft | 144 kts | 25° |
| 2026-04-22 20:01 | 39.59494 | -104.85604 | 6470 ft | 114 kts | 122° |
| 2026-04-22 20:01 | 39.58984 | -104.85353 | 6211 ft | 86 kts | 191° |
| 2026-04-22 20:01 | 39.58359 | -104.85398 | 5949 ft | 96 kts | 187° |
| 2026-04-22 20:02 | 39.57740 | -104.85364 | 5840 ft | 79 kts | 189° |
| 2026-04-22 20:02 | 39.57294 | -104.85371 | 5837 ft | 51 kts | 177° |
| 2026-04-22 20:02 | 39.57148 | -104.85381 | 5838 ft | 8 kts | 175° |